Saint-Pie, Canada
Current Conditions -  °F | °C
As of 9:00 AM on Tuesday 27 Jan 2015 (Local Time) from CYHU Reporting Station
Scattered Clouds Scattered Clouds  
Wind Chill: -17°   Ceiling: Unl
Heat Index:   Visibility: 9mi
Dew Point: -4°   Wind: 24mph
Humidity: 66%   Direction: 20°NNE
Pressure: 30.11"   Gusts: NA
Location:  45.5°N, 72.9°W
Report Text: CYHU 271400Z AUTO 02021KT 9SM FEW170 SCT190 M15/M20 A3011 RMK SLP199
Loading
Personal Weather Stations






























Interactive Weather Map New forecast layout! Learn more

10-Day Weather Forecast

Advertisements
Track Severe Weather on mobile